createdAt,value
2022-12-09T00:02:06.175Z,42.35
2022-12-09T00:04:33.936Z,43.05
2022-12-09T00:07:00.823Z,39.80
2022-12-09T00:09:27.477Z,40.38
2022-12-09T00:11:54.275Z,46.90
2022-12-09T00:14:20.949Z,47.33
2022-12-09T00:16:47.804Z,47.55
2022-12-09T00:19:14.496Z,46.10
2022-12-09T00:21:42.533Z,41.55
2022-12-09T00:24:12.376Z,37.80
2022-12-09T00:26:39.489Z,41.28
2022-12-09T00:29:06.376Z,39.92
2022-12-09T00:31:35.581Z,39.60
2022-12-09T00:34:04.985Z,45.50
2022-12-09T00:36:31.844Z,43.58
2022-12-09T00:38:59.271Z,41.25
2022-12-09T00:41:27.044Z,43.83
2022-12-09T00:43:54.515Z,42.50
2022-12-09T00:46:21.316Z,47.03
2022-12-09T00:48:48.171Z,48.08
2022-12-09T00:51:17.548Z,46.28
2022-12-09T00:53:44.919Z,43.28
2022-12-09T00:56:11.641Z,47.50
2022-12-09T00:58:38.389Z,49.90
2022-12-09T01:01:05.409Z,43.05
2022-12-09T01:03:32.747Z,47.28
2022-12-09T01:06:00.356Z,45.03
2022-12-09T01:08:27.322Z,46.65
2022-12-09T01:10:54.140Z,43.97
2022-12-09T01:13:21.044Z,40.05
2022-12-09T01:15:47.808Z,45.60
2022-12-09T01:18:14.655Z,48.88
2022-12-09T01:20:41.596Z,46.88
2022-12-09T01:23:08.563Z,47.58
2022-12-09T01:25:35.412Z,49.13
2022-12-09T01:28:02.241Z,47.15
2022-12-09T01:30:31.572Z,44.85
2022-12-09T01:32:58.266Z,49.13
2022-12-09T01:35:25.576Z,50.80
2022-12-09T01:37:52.283Z,50.22
2022-12-09T01:40:19.696Z,50.55
2022-12-09T01:42:46.458Z,48.40
2022-12-09T01:45:22.378Z,47.30
2022-12-09T01:47:57.150Z,46.33
2022-12-09T01:50:25.838Z,47.60
2022-12-09T01:52:52.580Z,50.28
2022-12-09T01:55:19.681Z,62.05
2022-12-09T01:57:47.189Z,53.25
2022-12-09T02:00:15.071Z,58.97
2022-12-09T02:02:43.992Z,57.88
2022-12-09T02:07:38.315Z,58.17
2022-12-09T02:10:11.112Z,52.30
2022-12-09T02:12:47.244Z,62.83
2022-12-09T02:15:19.690Z,65.38
2022-12-09T02:17:55.791Z,69.90
2022-12-09T02:20:46.883Z,72.38
2022-12-09T02:23:16.517Z,74.15
2022-12-09T02:25:48.896Z,87.13
2022-12-09T02:28:24.606Z,89.88
2022-12-09T02:30:58.477Z,90.45
2022-12-09T02:34:00.541Z,95.50
2022-12-09T02:36:30.985Z,78.70
2022-12-09T02:38:58.337Z,85.00
2022-12-09T02:41:27.889Z,85.32
2022-12-09T02:43:59.752Z,79.80
2022-12-09T02:46:28.348Z,90.00
2022-12-09T02:48:57.320Z,76.15
2022-12-09T02:51:25.841Z,68.30
2022-12-09T02:53:54.281Z,81.57
2022-12-09T02:56:21.787Z,75.20
2022-12-09T02:58:49.277Z,65.82
2022-12-09T03:01:25.198Z,64.05
2022-12-09T03:03:54.213Z,73.18
2022-12-09T03:06:23.658Z,80.97
2022-12-09T03:11:24.442Z,69.35
2022-12-09T03:13:51.244Z,67.93
2022-12-09T03:16:23.511Z,70.85
2022-12-09T03:18:55.561Z,72.47
2022-12-09T03:21:24.583Z,72.38
2022-12-09T03:23:53.547Z,68.72
2022-12-09T03:26:20.665Z,68.55
2022-12-09T03:28:49.552Z,67.57
2022-12-09T03:31:19.899Z,75.45
2022-12-09T03:33:48.968Z,67.22
2022-12-09T03:36:17.536Z,64.80
2022-12-09T03:38:45.810Z,66.65
2022-12-09T03:41:24.354Z,74.00
2022-12-09T03:43:54.935Z,64.78
2022-12-09T03:46:22.289Z,70.63
2022-12-09T03:48:49.338Z,69.20
2022-12-09T03:51:28.652Z,70.35
2022-12-09T03:54:27.120Z,72.53
2022-12-09T03:56:57.136Z,77.40
2022-12-09T03:59:25.714Z,74.50
2022-12-09T04:01:52.986Z,68.78
2022-12-09T04:04:20.324Z,71.25
2022-12-09T04:06:48.205Z,83.38
2022-12-09T04:09:15.658Z,74.85
2022-12-09T04:11:42.446Z,69.22
2022-12-09T04:14:15.295Z,76.82
2022-12-09T04:16:42.721Z,78.07
2022-12-09T04:19:09.643Z,63.58
2022-12-09T04:21:36.670Z,68.93
2022-12-09T04:24:03.768Z,78.13
2022-12-09T04:26:30.558Z,65.40
2022-12-09T04:28:57.435Z,68.50
2022-12-09T04:31:24.413Z,72.82
2022-12-09T04:33:51.431Z,70.28
2022-12-09T04:36:19.810Z,71.28
2022-12-09T04:38:46.674Z,90.38
2022-12-09T04:41:14.058Z,64.93
2022-12-09T04:43:41.097Z,60.92
2022-12-09T04:46:11.935Z,64.75
2022-12-09T04:48:38.823Z,68.20
2022-12-09T04:51:07.925Z,69.18
2022-12-09T04:53:34.913Z,58.42
2022-12-09T04:56:04.304Z,61.30
2022-12-09T04:58:31.196Z,61.35
2022-12-09T05:00:58.162Z,54.92
2022-12-09T05:03:25.730Z,58.33
2022-12-09T05:05:53.302Z,52.85
2022-12-09T05:08:20.401Z,54.25
2022-12-09T05:10:49.758Z,62.17
2022-12-09T05:13:17.305Z,60.25
2022-12-09T05:15:44.396Z,85.55
2022-12-09T05:18:11.324Z,99.75
2022-12-09T05:20:39.520Z,86.70
2022-12-09T05:23:09.507Z,108.28
2022-12-09T05:25:37.288Z,100.68
2022-12-09T05:28:04.465Z,104.50
2022-12-09T05:30:31.246Z,92.05
2022-12-09T05:32:58.430Z,101.20
2022-12-09T05:35:25.574Z,97.13
2022-12-09T05:37:52.746Z,105.05
2022-12-09T05:40:19.478Z,79.47
2022-12-09T05:42:46.295Z,82.47
2022-12-09T05:45:13.173Z,80.53
2022-12-09T05:47:40.959Z,79.50
2022-12-09T05:50:09.039Z,80.10
2022-12-09T05:52:37.246Z,131.05
2022-12-09T05:55:06.293Z,156.93
2022-12-09T05:57:36.687Z,89.15
2022-12-09T06:00:06.789Z,110.35
2022-12-09T06:02:34.053Z,79.75
2022-12-09T06:05:01.233Z,88.47
2022-12-09T06:07:28.612Z,81.15
2022-12-09T06:09:55.632Z,71.65
2022-12-09T06:12:22.788Z,89.53
2022-12-09T06:14:49.891Z,80.75
2022-12-09T06:17:17.156Z,76.80
2022-12-09T06:19:44.046Z,80.13
2022-12-09T06:22:11.576Z,92.03
2022-12-09T06:24:38.331Z,78.78
2022-12-09T06:27:05.415Z,79.25
2022-12-09T06:29:32.728Z,73.38
2022-12-09T06:32:00.316Z,65.38
2022-12-09T06:34:28.439Z,64.38
2022-12-09T06:36:55.423Z,54.90
2022-12-09T06:39:22.294Z,56.58
2022-12-09T06:41:49.150Z,61.72
2022-12-09T06:44:23.252Z,56.83
2022-12-09T06:46:51.286Z,59.17
2022-12-09T06:49:18.439Z,55.58
2022-12-09T06:51:46.288Z,77.07
2022-12-09T06:54:13.476Z,66.85
2022-12-09T06:56:40.477Z,72.35
2022-12-09T06:59:09.274Z,63.45
2022-12-09T07:01:37.409Z,60.47
2022-12-09T07:04:05.788Z,72.45
2022-12-09T07:06:39.545Z,62.90
2022-12-09T07:09:13.000Z,73.90
2022-12-09T07:11:42.365Z,67.57
2022-12-09T07:14:10.150Z,56.47
2022-12-09T07:16:38.217Z,73.93
2022-12-09T07:19:06.125Z,66.97
2022-12-09T07:21:33.852Z,73.97
2022-12-09T07:24:02.117Z,62.85
2022-12-09T07:26:33.709Z,76.10
2022-12-09T07:29:05.248Z,76.22
2022-12-09T07:31:32.715Z,78.32
2022-12-09T07:34:00.171Z,73.70
2022-12-09T07:36:29.511Z,70.30
2022-12-09T07:39:02.338Z,69.97
2022-12-09T07:41:29.704Z,83.47
2022-12-09T07:43:56.639Z,68.50
2022-12-09T07:46:25.911Z,83.22
2022-12-09T07:48:53.631Z,69.82
2022-12-09T07:51:22.928Z,91.65
2022-12-09T07:53:50.290Z,74.43
2022-12-09T07:56:17.903Z,77.68
2022-12-09T07:58:47.813Z,72.25
2022-12-09T08:01:21.067Z,64.45
2022-12-09T08:03:49.535Z,66.03
2022-12-09T08:06:19.818Z,76.03
2022-12-09T08:08:47.586Z,60.95
2022-12-09T08:11:21.517Z,65.47
2022-12-09T08:13:49.049Z,57.58
2022-12-09T08:16:17.717Z,59.47
2022-12-09T08:18:45.026Z,64.63
2022-12-09T08:21:16.777Z,65.72
2022-12-09T08:23:44.130Z,83.35
2022-12-09T08:26:12.212Z,77.22
2022-12-09T08:28:39.627Z,62.45
2022-12-09T08:31:14.992Z,68.70
2022-12-09T08:33:42.487Z,73.30
2022-12-09T08:36:16.669Z,65.57
2022-12-09T08:38:44.240Z,71.57
2022-12-09T08:41:17.587Z,73.65
2022-12-09T08:43:45.608Z,42.22
2022-12-09T08:46:13.718Z,42.28
2022-12-09T08:48:42.452Z,38.33
2022-12-09T08:51:11.392Z,54.22
2022-12-09T08:56:12.957Z,56.15
2022-12-09T08:58:41.013Z,43.85
2022-12-09T09:01:08.172Z,40.05
2022-12-09T09:03:35.310Z,39.92
2022-12-09T09:06:09.626Z,36.55
2022-12-09T09:08:39.088Z,43.67
2022-12-09T09:11:25.073Z,38.28
2022-12-09T09:13:52.408Z,44.15
2022-12-09T09:16:21.763Z,40.00
2022-12-09T09:18:49.143Z,32.33
2022-12-09T09:21:17.627Z,44.40
2022-12-09T09:23:44.754Z,36.67
2022-12-09T09:26:15.911Z,37.65
2022-12-09T09:28:43.278Z,46.03
2022-12-09T09:31:13.489Z,38.45
2022-12-09T09:33:41.011Z,48.15
2022-12-09T09:36:11.346Z,45.67
2022-12-09T09:38:38.478Z,57.63
2022-12-09T09:41:32.564Z,42.45
2022-12-09T09:43:59.962Z,41.70
2022-12-09T09:46:36.057Z,44.60
2022-12-09T09:49:05.862Z,46.10
2022-12-09T09:51:34.391Z,53.20
2022-12-09T09:54:06.769Z,56.58
2022-12-09T09:56:41.113Z,58.70
2022-12-09T09:59:19.512Z,51.00
2022-12-09T10:01:53.364Z,62.13
2022-12-09T10:04:44.509Z,55.88
2022-12-09T10:07:32.476Z,54.58
2022-12-09T10:10:36.531Z,51.28
2022-12-09T10:13:20.886Z,57.40
2022-12-09T10:16:15.548Z,55.20
2022-12-09T10:19:09.870Z,41.13
2022-12-09T10:21:42.492Z,55.80
2022-12-09T10:24:40.208Z,69.80
2022-12-09T10:27:28.462Z,58.35
2022-12-09T10:30:22.465Z,43.78
2022-12-09T10:32:49.476Z,67.57
2022-12-09T10:35:18.750Z,57.42
2022-12-09T10:37:47.261Z,43.97
2022-12-09T10:40:23.239Z,40.10
2022-12-09T10:43:11.699Z,47.22
2022-12-09T10:48:46.565Z,51.38
2022-12-09T10:51:23.232Z,51.90
2022-12-09T10:54:21.860Z,50.80
2022-12-09T10:57:23.473Z,53.80
2022-12-09T11:00:04.474Z,45.90
2022-12-09T11:02:33.822Z,57.78
2022-12-09T11:07:51.269Z,45.70
2022-12-09T11:10:24.998Z,54.25
2022-12-09T11:13:07.121Z,47.47
2022-12-09T11:15:43.002Z,46.72
2022-12-09T11:18:23.068Z,55.80
2022-12-09T11:21:02.217Z,49.05
2022-12-09T11:23:30.086Z,43.05
2022-12-09T11:25:59.388Z,49.28
2022-12-09T11:28:31.960Z,46.20
2022-12-09T11:33:54.143Z,40.92
2022-12-09T11:36:29.875Z,40.03
2022-12-09T11:39:28.716Z,37.38
2022-12-09T11:42:17.020Z,42.72
2022-12-09T11:45:16.453Z,49.90
2022-12-09T11:50:34.774Z,43.10
2022-12-09T11:53:11.851Z,50.38
2022-12-09T11:55:45.370Z,41.97
2022-12-09T11:58:52.695Z,40.28
2022-12-09T12:01:24.960Z,38.63
2022-12-09T12:03:57.086Z,46.58
2022-12-09T12:06:44.821Z,48.92
2022-12-09T12:09:23.742Z,49.67
2022-12-09T12:12:09.867Z,55.38
2022-12-09T12:14:38.757Z,47.72
2022-12-09T12:17:32.153Z,42.63
2022-12-09T12:19:58.840Z,45.42
2022-12-09T12:22:44.209Z,45.63
2022-12-09T12:25:22.743Z,43.15
2022-12-09T12:28:20.146Z,40.88
2022-12-09T12:31:06.118Z,50.42
2022-12-09T12:34:16.226Z,53.55
2022-12-09T12:36:36.575Z,46.60
2022-12-09T12:39:32.139Z,40.70
2022-12-09T12:42:24.535Z,31.40
2022-12-09T12:45:39.999Z,47.00
2022-12-09T12:48:09.947Z,45.03
2022-12-09T12:51:01.536Z,36.17
2022-12-09T12:54:06.020Z,51.45
2022-12-09T12:56:40.571Z,41.63
2022-12-09T12:59:16.764Z,37.95
2022-12-09T13:02:08.466Z,36.63
2022-12-09T13:04:58.216Z,39.53
2022-12-09T13:07:37.002Z,39.95
2022-12-09T13:10:22.702Z,32.55
2022-12-09T13:12:54.140Z,44.22
2022-12-09T13:15:36.506Z,32.67
2022-12-09T13:18:13.501Z,38.45
2022-12-09T13:20:46.438Z,45.88
2022-12-09T13:23:24.292Z,45.70
2022-12-09T13:26:12.607Z,58.42
2022-12-09T13:28:56.508Z,53.95
2022-12-09T13:31:29.348Z,43.22
2022-12-09T13:33:59.034Z,38.67
2022-12-09T13:36:40.955Z,43.78
2022-12-09T13:39:30.342Z,51.67
2022-12-09T13:42:15.754Z,59.70
2022-12-09T13:44:42.438Z,55.78
2022-12-09T13:47:27.238Z,40.75
2022-12-09T13:50:06.321Z,45.72
2022-12-09T13:52:43.585Z,52.85
2022-12-09T13:55:30.375Z,67.53
2022-12-09T13:58:13.645Z,74.63
2022-12-09T14:00:42.585Z,52.22
2022-12-09T14:03:27.923Z,62.85
2022-12-09T14:05:57.242Z,67.55
2022-12-09T14:08:27.413Z,71.70
2022-12-09T14:10:54.198Z,90.90
2022-12-09T14:13:26.710Z,47.25
2022-12-09T14:16:28.455Z,59.47
2022-12-09T14:18:56.584Z,60.30
2022-12-09T14:21:23.314Z,65.65
2022-12-09T14:24:08.351Z,34.33
2022-12-09T14:26:59.411Z,50.00
2022-12-09T14:29:45.518Z,62.10
2022-12-09T14:32:22.908Z,42.55
2022-12-09T14:35:00.070Z,34.58
2022-12-09T14:37:51.419Z,43.40
2022-12-09T14:40:52.920Z,38.20
2022-12-09T14:43:37.510Z,35.42
2022-12-09T14:46:06.772Z,45.63
2022-12-09T14:48:36.472Z,41.22
2022-12-09T14:51:15.808Z,53.92
2022-12-09T14:53:43.136Z,44.88
2022-12-09T14:56:16.323Z,39.00
2022-12-09T14:58:49.677Z,52.28
2022-12-09T15:01:18.284Z,58.38
2022-12-09T15:03:57.230Z,53.25
2022-12-09T15:06:26.946Z,55.22
2022-12-09T15:08:56.138Z,49.67
2022-12-09T15:13:53.942Z,50.95
2022-12-09T15:16:24.410Z,52.47
2022-12-09T15:18:52.226Z,50.55
2022-12-09T15:21:30.361Z,44.55
2022-12-09T15:23:58.744Z,39.05
2022-12-09T15:26:29.092Z,50.28
2022-12-09T15:28:57.386Z,54.75
2022-12-09T15:31:27.056Z,37.42
2022-12-09T15:33:56.837Z,59.13
2022-12-09T15:36:30.722Z,53.88
2022-12-09T15:39:03.478Z,56.75
2022-12-09T15:41:53.861Z,70.80
2022-12-09T15:44:22.062Z,63.83
2022-12-09T15:46:50.982Z,94.45
2022-12-09T15:49:27.411Z,78.95
2022-12-09T15:51:55.987Z,76.57
2022-12-09T15:54:26.359Z,74.18
2022-12-09T15:56:58.793Z,76.47
2022-12-09T15:59:28.455Z,62.97
2022-12-09T16:01:57.305Z,64.85
2022-12-09T16:04:30.909Z,67.72
2022-12-09T16:07:05.291Z,67.28
2022-12-09T16:09:32.076Z,72.03
2022-12-09T16:11:58.793Z,61.67
2022-12-09T16:14:25.911Z,58.25
2022-12-09T16:17:01.560Z,68.95
2022-12-09T16:19:31.349Z,58.08
2022-12-09T16:22:04.101Z,72.13
2022-12-09T16:24:51.089Z,75.72
2022-12-09T16:27:22.383Z,60.70
2022-12-09T16:30:05.351Z,73.65
2022-12-09T16:32:34.410Z,64.70
2022-12-09T16:35:10.210Z,49.95
2022-12-09T16:37:42.926Z,60.45
2022-12-09T16:40:21.964Z,72.85
2022-12-09T16:42:50.034Z,78.03
2022-12-09T16:45:22.840Z,60.47
2022-12-09T16:47:56.925Z,66.25
2022-12-09T16:50:28.141Z,69.00
2022-12-09T16:52:54.848Z,65.65
2022-12-09T16:55:23.855Z,62.67
2022-12-09T16:57:51.086Z,71.00
2022-12-09T17:00:18.739Z,67.22
2022-12-09T17:03:07.351Z,53.63
2022-12-09T17:05:34.059Z,56.60
2022-12-09T17:08:00.838Z,70.90
2022-12-09T17:10:27.499Z,72.05
2022-12-09T17:12:54.319Z,59.05
2022-12-09T17:15:21.424Z,62.10
2022-12-09T17:17:49.092Z,69.90
2022-12-09T17:20:16.368Z,61.72
2022-12-09T17:22:43.134Z,64.47
2022-12-09T17:25:10.451Z,65.50
2022-12-09T17:27:37.543Z,61.97
2022-12-09T17:30:05.381Z,76.22
2022-12-09T17:32:32.102Z,68.60
2022-12-09T17:34:58.751Z,51.83
2022-12-09T17:37:25.494Z,43.90
2022-12-09T17:39:56.906Z,61.00
2022-12-09T17:42:28.383Z,55.55
2022-12-09T17:44:55.119Z,56.15
2022-12-09T17:47:21.814Z,59.42
2022-12-09T17:49:48.491Z,63.50
2022-12-09T17:52:15.188Z,61.20
2022-12-09T17:54:41.863Z,54.22
2022-12-09T17:57:08.535Z,55.58
2022-12-09T17:59:35.249Z,56.40
2022-12-09T18:02:03.751Z,56.70
2022-12-09T18:04:31.643Z,59.03
2022-12-09T18:06:58.450Z,52.05
2022-12-09T18:09:25.133Z,54.60
2022-12-09T18:11:51.960Z,64.00
2022-12-09T18:14:19.304Z,49.72
2022-12-09T18:16:46.646Z,52.78
2022-12-09T18:19:18.226Z,60.47
2022-12-09T18:21:45.487Z,58.83
2022-12-09T18:24:12.434Z,67.32
2022-12-09T18:26:41.998Z,60.28
2022-12-09T18:29:10.071Z,48.35
2022-12-09T18:31:36.823Z,59.78
2022-12-09T18:34:03.595Z,64.15
2022-12-09T18:36:30.365Z,60.50
2022-12-09T18:38:58.194Z,53.88
2022-12-09T18:41:29.480Z,57.15
2022-12-09T18:43:59.447Z,51.15
2022-12-09T18:46:31.586Z,56.45
2022-12-09T18:49:00.291Z,55.75
2022-12-09T18:51:27.961Z,47.55
2022-12-09T18:53:54.994Z,47.60
2022-12-09T18:56:21.689Z,50.58
2022-12-09T19:01:39.441Z,56.45
2022-12-09T19:04:08.877Z,64.63
2022-12-09T19:06:38.091Z,56.30
2022-12-09T19:09:07.219Z,57.28
2022-12-09T19:11:36.063Z,53.95
2022-12-09T19:14:04.625Z,58.00
2022-12-09T19:16:31.538Z,52.33
2022-12-09T19:19:03.818Z,62.95
2022-12-09T19:21:34.220Z,58.17
2022-12-09T19:24:00.929Z,56.58
2022-12-09T19:26:32.073Z,63.10
2022-12-09T19:29:01.864Z,73.57
2022-12-09T19:31:35.703Z,61.67
2022-12-09T19:34:04.588Z,61.22
2022-12-09T19:36:33.963Z,54.35
2022-12-09T19:39:01.682Z,66.10
2022-12-09T19:41:28.567Z,58.50
2022-12-09T19:43:59.011Z,63.22
2022-12-09T19:46:26.669Z,74.38
2022-12-09T19:48:54.072Z,64.75
2022-12-09T19:51:21.773Z,66.15
2022-12-09T19:54:07.288Z,45.08
2022-12-09T19:56:34.061Z,53.55
2022-12-09T19:59:00.721Z,54.85
2022-12-09T20:01:30.593Z,85.57
2022-12-09T20:04:19.135Z,72.53
2022-12-09T20:06:50.968Z,60.38
2022-12-09T20:09:24.425Z,72.18
2022-12-09T20:11:52.905Z,69.90
2022-12-09T20:14:19.773Z,74.53
2022-12-09T20:16:46.509Z,63.30
2022-12-09T20:19:13.176Z,58.03
2022-12-09T20:21:40.604Z,58.67
2022-12-09T20:24:09.598Z,51.97
2022-12-09T20:26:37.843Z,68.63
2022-12-09T20:29:07.576Z,59.45
2022-12-09T20:31:35.974Z,58.42
2022-12-09T20:34:05.743Z,62.78
2022-12-09T20:36:34.210Z,63.85
2022-12-09T20:39:04.134Z,64.65
2022-12-09T20:41:30.798Z,64.40
2022-12-09T20:43:59.164Z,58.13
2022-12-09T20:46:30.913Z,68.32
2022-12-09T20:48:58.118Z,61.05
2022-12-09T20:51:28.694Z,62.15
2022-12-09T20:53:55.884Z,59.90
2022-12-09T20:56:24.060Z,63.67
2022-12-09T20:58:53.647Z,58.75
2022-12-09T21:01:24.183Z,63.45
2022-12-09T21:03:51.826Z,58.22
2022-12-09T21:06:20.662Z,50.30
2022-12-09T21:08:47.347Z,54.78
2022-12-09T21:11:20.799Z,58.85
2022-12-09T21:13:54.103Z,49.28
2022-12-09T21:16:32.074Z,52.83
2022-12-09T21:19:02.029Z,53.28
2022-12-09T21:21:30.902Z,62.95
2022-12-09T21:23:57.835Z,58.80
2022-12-09T21:26:25.233Z,52.08
2022-12-09T21:28:52.570Z,49.20
2022-12-09T21:31:19.577Z,50.45
2022-12-09T21:33:48.047Z,42.28
2022-12-09T21:36:19.906Z,45.55
2022-12-09T21:38:46.591Z,44.58
2022-12-09T21:41:16.282Z,52.55
2022-12-09T21:43:43.695Z,52.20
2022-12-09T21:46:15.865Z,47.20
2022-12-09T21:48:42.639Z,41.35
2022-12-09T21:51:10.516Z,40.95
2022-12-09T21:53:37.754Z,51.45
2022-12-09T21:56:09.671Z,47.50
2022-12-09T21:58:36.383Z,46.05
2022-12-09T22:01:13.049Z,44.72
2022-12-09T22:03:39.881Z,39.67
2022-12-09T22:06:07.667Z,46.85
2022-12-09T22:08:35.593Z,48.40
2022-12-09T22:11:09.353Z,47.45
2022-12-09T22:13:39.266Z,37.60
2022-12-09T22:16:11.166Z,44.67
2022-12-09T22:18:38.152Z,47.50
2022-12-09T22:23:54.772Z,40.67
2022-12-09T22:26:22.078Z,43.00
2022-12-09T22:28:48.956Z,46.67
2022-12-09T22:31:21.515Z,43.83
2022-12-09T22:33:49.605Z,45.28
2022-12-09T22:36:17.095Z,38.10
2022-12-09T22:38:44.100Z,44.45
2022-12-09T22:41:13.376Z,42.28
2022-12-09T22:43:40.758Z,47.53
2022-12-09T22:46:10.511Z,37.50
2022-12-09T22:48:37.782Z,43.03
2022-12-09T22:51:16.007Z,38.13
2022-12-09T22:53:43.354Z,43.65
2022-12-09T22:56:11.491Z,38.75
2022-12-09T22:58:38.205Z,48.35
2022-12-09T23:01:12.203Z,51.05
2022-12-09T23:03:39.204Z,43.72
2022-12-09T23:06:06.291Z,39.38
2022-12-09T23:08:33.266Z,34.33
2022-12-09T23:11:04.513Z,40.55
2022-12-09T23:13:33.892Z,38.20
2022-12-09T23:16:05.444Z,40.80
2022-12-09T23:18:33.703Z,41.78
2022-12-09T23:21:04.790Z,41.00
2022-12-09T23:23:32.145Z,36.85
2022-12-09T23:26:13.732Z,45.40
2022-12-09T23:28:42.742Z,39.17
2022-12-09T23:31:11.079Z,45.22
2022-12-09T23:33:38.993Z,42.22
2022-12-09T23:36:10.941Z,40.55
2022-12-09T23:38:38.045Z,35.03
2022-12-09T23:41:05.147Z,42.28
2022-12-09T23:43:33.544Z,33.78
2022-12-09T23:46:14.889Z,42.20
2022-12-09T23:48:42.836Z,34.10
2022-12-09T23:51:15.690Z,42.40
2022-12-09T23:53:44.047Z,39.53
2022-12-09T23:56:12.627Z,35.58
2022-12-09T23:58:39.819Z,39.13
